createdAt,value
2019-01-27T00:01:40.016Z,54.20
2019-01-27T00:04:18.882Z,54.50
2019-01-27T00:06:48.993Z,54.80
2019-01-27T00:09:17.986Z,54.50
2019-01-27T00:11:49.633Z,55.00
2019-01-27T00:14:27.772Z,55.20
2019-01-27T00:16:56.450Z,55.10
2019-01-27T00:19:31.909Z,54.90
2019-01-27T00:22:03.039Z,55.00
2019-01-27T00:24:41.226Z,55.10
2019-01-27T00:27:13.086Z,55.00
2019-01-27T00:29:41.756Z,55.00
2019-01-27T00:32:11.710Z,55.30
2019-01-27T00:34:49.461Z,55.30
2019-01-27T00:37:18.512Z,55.10
2019-01-27T00:39:47.325Z,54.80
2019-01-27T00:42:16.343Z,54.30
2019-01-27T00:44:56.658Z,53.60
2019-01-27T00:47:28.633Z,53.30
2019-01-27T00:49:57.375Z,53.30
2019-01-27T00:52:26.069Z,53.40
2019-01-27T00:55:04.734Z,53.10
2019-01-27T00:57:33.425Z,53.60
2019-01-27T01:00:02.325Z,53.60
2019-01-27T01:02:32.118Z,53.80
2019-01-27T01:05:11.039Z,54.40
2019-01-27T01:07:40.055Z,55.10
2019-01-27T01:10:09.855Z,54.90
2019-01-27T01:12:39.742Z,54.60
2019-01-27T01:15:18.527Z,54.80
2019-01-27T01:17:50.600Z,54.80
2019-01-27T01:20:19.729Z,55.00
2019-01-27T01:22:49.256Z,56.10
2019-01-27T01:25:27.097Z,55.60
2019-01-27T01:27:56.788Z,56.10
2019-01-27T01:30:29.051Z,56.20
2019-01-27T01:32:57.801Z,55.80
2019-01-27T01:35:35.414Z,55.00
2019-01-27T01:38:04.099Z,54.90
2019-01-27T01:40:35.169Z,55.00
2019-01-27T01:43:03.903Z,54.80
2019-01-27T01:45:41.806Z,54.20
2019-01-27T01:48:10.677Z,53.70
2019-01-27T01:50:39.702Z,53.50
2019-01-27T01:53:10.672Z,53.40
2019-01-27T01:55:48.643Z,54.00
2019-01-27T01:58:17.731Z,54.00
2019-01-27T02:00:46.649Z,53.70
2019-01-27T02:03:15.412Z,53.80
2019-01-27T02:05:55.636Z,54.50
2019-01-27T02:08:24.618Z,55.20
2019-01-27T02:10:53.815Z,55.00
2019-01-27T02:13:22.957Z,54.50
2019-01-27T02:16:08.675Z,53.90
2019-01-27T02:18:38.404Z,53.50
2019-01-27T02:21:07.494Z,53.30
2019-01-27T02:23:36.670Z,53.50
2019-01-27T02:26:14.603Z,52.80
2019-01-27T02:28:52.057Z,52.60
2019-01-27T02:31:20.819Z,52.60
2019-01-27T02:33:49.538Z,52.70
2019-01-27T02:36:27.398Z,53.20
2019-01-27T02:41:30.217Z,54.10
2019-01-27T02:43:59.065Z,53.50
2019-01-27T02:46:36.874Z,52.60
2019-01-27T02:49:05.920Z,52.80
2019-01-27T02:51:34.741Z,51.90
2019-01-27T02:54:03.756Z,52.10
2019-01-27T02:56:41.575Z,51.60
2019-01-27T02:59:13.514Z,51.00
2019-01-27T03:01:42.469Z,50.60
2019-01-27T03:04:14.391Z,50.40
2019-01-27T03:07:01.928Z,50.50
2019-01-27T03:09:39.965Z,50.50
2019-01-27T03:12:08.757Z,50.20
2019-01-27T03:14:37.471Z,50.90
2019-01-27T03:17:17.057Z,51.80
2019-01-27T03:19:45.921Z,52.50
2019-01-27T03:22:16.200Z,52.40
2019-01-27T03:24:44.900Z,51.90
2019-01-27T03:27:22.689Z,52.00
2019-01-27T03:29:51.496Z,52.20
2019-01-27T03:32:20.407Z,53.20
2019-01-27T03:34:49.328Z,52.90
2019-01-27T03:37:27.252Z,52.10
2019-01-27T03:39:57.279Z,51.90
2019-01-27T03:42:26.061Z,52.00
2019-01-27T03:44:55.098Z,52.50
2019-01-27T03:47:25.658Z,53.00
2019-01-27T03:49:54.757Z,53.80
2019-01-27T03:52:26.115Z,53.40
2019-01-27T03:54:55.341Z,53.80
2019-01-27T03:57:34.724Z,52.70
2019-01-27T04:00:08.444Z,52.80
2019-01-27T04:02:37.161Z,53.40
2019-01-27T04:05:05.962Z,53.10
2019-01-27T04:07:46.112Z,52.60
2019-01-27T04:10:19.366Z,51.90
2019-01-27T04:12:50.148Z,52.30
2019-01-27T04:15:18.933Z,52.10
2019-01-27T04:17:56.879Z,52.20
2019-01-27T04:20:28.644Z,52.50
2019-01-27T04:22:57.403Z,52.00
2019-01-27T04:25:26.117Z,51.60
2019-01-27T04:28:04.131Z,51.70
2019-01-27T04:30:34.970Z,51.80
2019-01-27T04:33:03.763Z,52.20
2019-01-27T04:35:35.798Z,52.20
2019-01-27T04:38:13.920Z,51.60
2019-01-27T04:40:42.697Z,51.30
2019-01-27T04:43:11.720Z,51.00
2019-01-27T04:45:40.596Z,50.50
2019-01-27T04:48:18.451Z,50.90
2019-01-27T04:50:48.307Z,50.80
2019-01-27T04:53:18.274Z,50.70
2019-01-27T04:55:49.754Z,51.00
2019-01-27T04:58:27.324Z,51.20
2019-01-27T05:00:59.475Z,51.80
2019-01-27T05:03:47.547Z,51.20
2019-01-27T05:06:16.711Z,51.20
2019-01-27T05:08:54.745Z,50.50
2019-01-27T05:11:23.439Z,50.60
2019-01-27T05:13:52.122Z,50.50
2019-01-27T05:16:21.277Z,51.10
2019-01-27T05:21:34.456Z,51.70
2019-01-27T05:24:03.523Z,52.30
2019-01-27T05:26:34.185Z,52.00
2019-01-27T05:29:11.919Z,51.90
2019-01-27T05:31:41.080Z,51.50
2019-01-27T05:34:12.492Z,51.30
2019-01-27T05:36:41.182Z,51.40
2019-01-27T05:39:19.336Z,50.80
2019-01-27T05:41:49.395Z,50.70
2019-01-27T05:44:18.230Z,49.30
2019-01-27T05:46:48.958Z,48.20
2019-01-27T05:49:26.760Z,48.70
2019-01-27T05:51:55.678Z,48.90
2019-01-27T05:54:24.546Z,48.80
2019-01-27T05:56:56.878Z,49.20
2019-01-27T05:59:38.455Z,49.90
2019-01-27T06:02:07.245Z,50.70
2019-01-27T06:04:36.017Z,51.00
2019-01-27T06:07:04.803Z,51.10
2019-01-27T06:09:42.880Z,51.20
2019-01-27T06:12:11.823Z,51.20
2019-01-27T06:14:40.699Z,50.80
2019-01-27T06:17:09.732Z,51.40
2019-01-27T06:19:50.860Z,51.90
2019-01-27T06:22:19.655Z,51.00
2019-01-27T06:24:48.639Z,51.40
2019-01-27T06:27:17.823Z,50.40
2019-01-27T06:29:58.912Z,51.00
2019-01-27T06:32:42.667Z,51.20
2019-01-27T06:35:11.590Z,51.60
2019-01-27T06:40:32.772Z,51.10
2019-01-27T06:43:01.721Z,50.60
2019-01-27T06:45:30.458Z,50.80
2019-01-27T06:48:08.452Z,50.80
2019-01-27T06:50:37.196Z,50.80
2019-01-27T06:53:07.503Z,51.10
2019-01-27T06:55:36.220Z,51.10
2019-01-27T07:01:04.877Z,52.80
2019-01-27T07:03:39.681Z,53.60
2019-01-27T07:06:18.464Z,54.30
2019-01-27T07:09:21.283Z,55.00
2019-01-27T07:12:15.905Z,55.10
2019-01-27T07:14:59.301Z,54.60
2019-01-27T07:17:46.146Z,53.80
2019-01-27T07:23:34.050Z,54.40
2019-01-27T07:26:21.739Z,54.30
2019-01-27T07:29:21.948Z,55.00
2019-01-27T07:32:10.285Z,55.20
2019-01-27T07:34:49.416Z,54.60
2019-01-27T07:37:52.940Z,54.30
2019-01-27T07:40:43.933Z,54.50
2019-01-27T07:43:50.271Z,54.50
2019-01-27T07:46:41.132Z,54.00
2019-01-27T07:49:50.038Z,53.80
2019-01-27T07:52:42.185Z,54.10
2019-01-27T07:55:32.829Z,53.80
2019-01-27T07:58:13.541Z,53.90
2019-01-27T08:00:57.296Z,54.00
2019-01-27T08:03:45.147Z,54.00
2019-01-27T08:06:42.126Z,54.90
2019-01-27T08:12:12.583Z,55.90
2019-01-27T08:14:59.581Z,55.90
2019-01-27T08:17:50.363Z,56.30
2019-01-27T08:23:49.458Z,56.00
2019-01-27T08:26:25.099Z,56.10
2019-01-27T08:29:03.112Z,55.50
2019-01-27T08:31:50.759Z,55.50
2019-01-27T08:34:54.142Z,55.30
2019-01-27T08:37:31.549Z,55.80
2019-01-27T08:40:42.340Z,55.20
2019-01-27T08:43:30.688Z,54.90
2019-01-27T08:46:08.327Z,54.30
2019-01-27T08:48:37.445Z,54.20
2019-01-27T08:51:15.524Z,55.10
2019-01-27T08:53:44.247Z,54.80
2019-01-27T08:56:13.058Z,54.20
2019-01-27T08:58:42.119Z,53.80
2019-01-27T09:01:42.065Z,53.20
2019-01-27T09:04:25.198Z,53.40
2019-01-27T09:07:28.394Z,53.40
2019-01-27T09:10:22.970Z,53.00
2019-01-27T09:13:23.901Z,53.20
2019-01-27T09:16:16.152Z,52.10
2019-01-27T09:19:02.544Z,52.00
2019-01-27T09:22:18.130Z,52.20
2019-01-27T09:24:59.199Z,52.50
2019-01-27T09:27:47.260Z,51.80
2019-01-27T09:30:38.148Z,51.90
2019-01-27T09:33:29.674Z,52.10
2019-01-27T09:36:35.751Z,52.20
2019-01-27T09:39:37.372Z,51.90
2019-01-27T09:42:25.349Z,52.10
2019-01-27T09:45:00.959Z,51.30
2019-01-27T09:48:00.968Z,51.10
2019-01-27T09:50:57.376Z,51.30
2019-01-27T09:53:41.409Z,51.30
2019-01-27T09:56:18.873Z,51.30
2019-01-27T09:59:04.980Z,50.70
2019-01-27T10:04:28.049Z,50.60
2019-01-27T10:07:14.759Z,50.90
2019-01-27T10:10:11.692Z,50.50
2019-01-27T10:13:01.332Z,51.10
2019-01-27T10:15:58.329Z,51.50
2019-01-27T10:18:46.178Z,50.40
2019-01-27T10:21:38.342Z,49.20
2019-01-27T10:24:16.578Z,48.10
2019-01-27T10:27:16.837Z,47.70
2019-01-27T10:29:59.563Z,47.00
2019-01-27T10:33:02.455Z,48.30
2019-01-27T10:35:47.751Z,48.10
2019-01-27T10:38:23.969Z,47.30
2019-01-27T10:41:15.423Z,47.20
2019-01-27T10:44:06.221Z,46.20
2019-01-27T10:46:47.948Z,46.00
2019-01-27T10:49:41.841Z,45.80
2019-01-27T10:52:41.989Z,47.00
2019-01-27T10:55:31.636Z,43.50
2019-01-27T10:58:18.228Z,41.60
2019-01-27T11:03:58.267Z,41.90
2019-01-27T11:06:40.703Z,41.50
2019-01-27T11:09:28.566Z,41.40
2019-01-27T11:12:17.969Z,40.10
2019-01-27T11:15:04.677Z,38.00
2019-01-27T11:17:40.589Z,36.90
2019-01-27T11:20:27.750Z,37.50
2019-01-27T11:23:23.439Z,37.70
2019-01-27T11:26:14.102Z,38.10
2019-01-27T11:29:00.468Z,39.30
2019-01-27T11:34:39.752Z,40.30
2019-01-27T11:37:17.925Z,40.70
2019-01-27T11:40:12.065Z,40.20
2019-01-27T11:43:07.907Z,40.40
2019-01-27T11:46:01.653Z,36.80
2019-01-27T11:48:48.583Z,35.20
2019-01-27T11:51:47.789Z,35.50
2019-01-27T11:54:17.543Z,32.90
2019-01-27T11:56:46.458Z,31.40
2019-01-27T11:59:17.673Z,30.50
2019-01-27T12:01:55.039Z,31.20
2019-01-27T12:04:25.027Z,32.80
2019-01-27T12:06:54.159Z,34.30
2019-01-27T12:09:23.117Z,35.50
2019-01-27T12:12:02.541Z,35.40
2019-01-27T12:14:34.100Z,36.00
2019-01-27T12:17:03.650Z,37.10
2019-01-27T12:19:32.858Z,36.50
2019-01-27T12:22:11.317Z,35.90
2019-01-27T12:24:41.416Z,37.20
2019-01-27T12:27:11.626Z,35.40
2019-01-27T12:29:43.267Z,32.60
2019-01-27T12:34:57.609Z,27.60
2019-01-27T12:37:26.464Z,26.00
2019-01-27T12:39:56.390Z,24.70
2019-01-27T12:42:34.280Z,25.00
2019-01-27T12:45:05.232Z,25.10
2019-01-27T12:47:34.033Z,26.10
2019-01-27T12:50:03.205Z,27.10
2019-01-27T12:52:41.254Z,27.60
2019-01-27T12:55:11.360Z,27.70
2019-01-27T12:57:41.669Z,27.30
2019-01-27T13:00:40.625Z,28.20
2019-01-27T13:03:18.609Z,29.00
2019-01-27T13:05:47.491Z,31.00
2019-01-27T13:08:16.861Z,33.10
2019-01-27T13:10:45.946Z,33.60
2019-01-27T13:13:24.008Z,35.60
2019-01-27T13:15:52.693Z,36.30
2019-01-27T13:18:21.906Z,36.00
2019-01-27T13:20:50.720Z,36.10
2019-01-27T13:23:28.900Z,36.70
2019-01-27T13:25:57.651Z,37.80
2019-01-27T13:28:26.355Z,38.10
2019-01-27T13:30:55.439Z,39.60
2019-01-27T13:36:13.008Z,41.80
2019-01-27T13:38:41.969Z,42.50
2019-01-27T13:41:13.091Z,42.40
2019-01-27T13:43:51.082Z,42.60
2019-01-27T13:46:19.837Z,41.40
2019-01-27T13:48:48.726Z,40.30
2019-01-27T13:51:17.696Z,39.30
2019-01-27T13:53:55.932Z,39.00
2019-01-27T13:56:27.437Z,39.20
2019-01-27T13:58:56.798Z,38.50
2019-01-27T14:01:28.765Z,38.10
2019-01-27T14:04:06.998Z,38.90
2019-01-27T14:06:35.829Z,39.00
2019-01-27T14:09:06.830Z,38.80
2019-01-27T14:11:35.758Z,39.30
2019-01-27T14:14:14.076Z,39.60
2019-01-27T14:16:42.919Z,39.60
2019-01-27T14:19:14.649Z,40.00
2019-01-27T14:21:43.436Z,40.60
2019-01-27T14:24:21.100Z,40.60
2019-01-27T14:26:50.024Z,40.50
2019-01-27T14:29:18.884Z,41.10
2019-01-27T14:31:49.715Z,42.00
2019-01-27T14:37:02.809Z,40.60
2019-01-27T14:39:34.593Z,40.70
2019-01-27T14:42:03.580Z,40.20
2019-01-27T14:44:44.535Z,40.30
2019-01-27T14:47:13.272Z,40.10
2019-01-27T14:49:42.244Z,41.00
2019-01-27T14:52:13.943Z,40.80
2019-01-27T14:54:51.904Z,41.70
2019-01-27T14:57:20.544Z,43.90
2019-01-27T14:59:52.090Z,44.20
2019-01-27T15:02:20.792Z,44.50
2019-01-27T15:04:59.299Z,44.90
2019-01-27T15:07:28.176Z,45.20
2019-01-27T15:09:58.211Z,45.10
2019-01-27T15:12:26.977Z,45.20
2019-01-27T15:15:06.187Z,44.60
2019-01-27T15:17:34.889Z,44.10
2019-01-27T15:20:04.631Z,43.00
2019-01-27T15:22:33.512Z,42.20
2019-01-27T15:25:11.235Z,41.70
2019-01-27T15:27:40.100Z,42.00
2019-01-27T15:30:12.895Z,42.20
2019-01-27T15:32:41.693Z,42.30
2019-01-27T15:35:19.872Z,41.80
2019-01-27T15:37:50.028Z,41.60
2019-01-27T15:40:19.351Z,42.00
2019-01-27T15:42:48.105Z,41.70
2019-01-27T15:45:27.465Z,41.00
2019-01-27T15:47:56.243Z,41.20
2019-01-27T15:50:29.733Z,42.40
2019-01-27T15:52:58.705Z,42.90
2019-01-27T15:55:37.349Z,42.70
2019-01-27T15:58:06.040Z,42.90
2019-01-27T16:00:34.862Z,43.20
2019-01-27T16:03:03.834Z,43.30
2019-01-27T16:05:41.908Z,43.60
2019-01-27T16:08:11.960Z,43.60
2019-01-27T16:10:41.090Z,43.50
2019-01-27T16:13:10.753Z,44.20
2019-01-27T16:18:23.722Z,44.10
2019-01-27T16:20:52.731Z,44.50
2019-01-27T16:23:43.829Z,44.60
2019-01-27T16:26:25.013Z,44.50
2019-01-27T16:28:54.106Z,44.00
2019-01-27T16:31:31.811Z,43.30
2019-01-27T16:34:27.463Z,43.40
2019-01-27T16:36:57.715Z,43.10
2019-01-27T16:39:26.446Z,42.90
2019-01-27T16:41:55.346Z,42.90
2019-01-27T16:44:36.732Z,43.00
2019-01-27T16:47:06.091Z,43.20
2019-01-27T16:49:35.038Z,43.40
2019-01-27T16:52:05.334Z,43.30
2019-01-27T16:54:43.264Z,42.90
2019-01-27T16:57:12.266Z,42.80
2019-01-27T16:59:40.948Z,43.00
2019-01-27T17:02:09.747Z,43.20
2019-01-27T17:04:47.939Z,43.30
2019-01-27T17:07:16.823Z,43.40
2019-01-27T17:09:45.603Z,43.30
2019-01-27T17:12:14.728Z,43.60
2019-01-27T17:14:52.340Z,44.40
2019-01-27T17:17:21.023Z,43.90
2019-01-27T17:19:49.813Z,44.40
2019-01-27T17:22:19.318Z,44.20
2019-01-27T17:25:00.366Z,43.90
2019-01-27T17:27:29.271Z,44.20
2019-01-27T17:29:58.564Z,44.40
2019-01-27T17:32:27.793Z,45.00
2019-01-27T17:35:07.125Z,45.00
2019-01-27T17:37:35.887Z,45.50
2019-01-27T17:40:05.704Z,45.20
2019-01-27T17:42:34.931Z,45.40
2019-01-27T17:45:14.983Z,45.50
2019-01-27T17:47:43.813Z,45.30
2019-01-27T17:50:14.883Z,45.00
2019-01-27T17:52:43.612Z,45.20
2019-01-27T17:58:40.068Z,45.40
2019-01-27T18:01:26.494Z,45.50
2019-01-27T18:04:04.744Z,45.60
2019-01-27T18:07:03.942Z,45.50
2019-01-27T18:09:51.728Z,45.30
2019-01-27T18:12:28.161Z,45.60
2019-01-27T18:14:57.125Z,45.70
2019-01-27T18:17:35.083Z,45.60
2019-01-27T18:20:05.462Z,45.50
2019-01-27T18:22:34.165Z,45.20
2019-01-27T18:25:03.017Z,45.50
2019-01-27T18:27:42.356Z,45.30
2019-01-27T18:30:20.719Z,44.90
2019-01-27T18:32:49.689Z,44.40
2019-01-27T18:35:19.536Z,44.60
2019-01-27T18:37:50.392Z,44.60
2019-01-27T18:40:19.562Z,44.90
2019-01-27T18:42:57.686Z,45.20
2019-01-27T18:45:29.494Z,46.70
2019-01-27T18:47:58.488Z,46.20
2019-01-27T18:50:27.449Z,46.10
2019-01-27T18:53:30.706Z,45.70
2019-01-27T18:56:27.440Z,45.10
2019-01-27T18:59:18.030Z,45.10
2019-01-27T19:02:26.992Z,44.70
2019-01-27T19:05:17.760Z,44.60
2019-01-27T19:07:56.970Z,44.70
2019-01-27T19:10:47.810Z,44.90
2019-01-27T19:13:45.012Z,45.60
2019-01-27T19:16:33.009Z,45.90
2019-01-27T19:19:18.947Z,46.10
2019-01-27T19:22:18.317Z,46.00
2019-01-27T19:25:02.984Z,45.60
2019-01-27T19:28:03.037Z,45.80
2019-01-27T19:30:40.208Z,45.80
2019-01-27T19:36:25.331Z,46.00
2019-01-27T19:39:16.791Z,46.20
2019-01-27T19:42:19.865Z,46.30
2019-01-27T19:45:06.970Z,46.50
2019-01-27T19:48:00.570Z,47.60
2019-01-27T19:50:51.217Z,46.80
2019-01-27T19:53:50.967Z,46.90
2019-01-27T19:56:31.236Z,47.30
2019-01-27T19:59:10.145Z,46.90
2019-01-27T20:02:01.051Z,47.00
2019-01-27T20:05:01.298Z,46.80
2019-01-27T20:07:48.455Z,46.40
2019-01-27T20:10:37.072Z,46.10
2019-01-27T20:13:20.946Z,45.50
2019-01-27T20:16:08.724Z,45.40
2019-01-27T20:18:55.173Z,45.40
2019-01-27T20:21:53.570Z,45.80
2019-01-27T20:24:52.614Z,46.40
2019-01-27T20:27:32.986Z,46.70
2019-01-27T20:30:25.853Z,46.90
2019-01-27T20:33:27.917Z,47.00
2019-01-27T20:36:10.609Z,47.00
2019-01-27T20:39:04.213Z,47.40
2019-01-27T20:42:02.278Z,47.60
2019-01-27T20:45:00.231Z,47.70
2019-01-27T20:48:00.761Z,48.00
2019-01-27T20:50:57.639Z,48.10
2019-01-27T20:53:53.318Z,47.60
2019-01-27T20:56:47.517Z,47.70
2019-01-27T20:59:28.361Z,47.80
2019-01-27T21:02:16.693Z,47.90
2019-01-27T21:05:16.059Z,48.00
2019-01-27T21:08:02.547Z,47.80
2019-01-27T21:10:52.344Z,48.50
2019-01-27T21:13:51.959Z,48.60
2019-01-27T21:16:30.395Z,48.90
2019-01-27T21:19:07.222Z,49.80
2019-01-27T21:21:35.968Z,49.40
2019-01-27T21:24:14.123Z,49.10
2019-01-27T21:26:42.865Z,49.20
2019-01-27T21:29:11.766Z,48.70
2019-01-27T21:31:40.549Z,48.70
2019-01-27T21:34:18.566Z,48.80
2019-01-27T21:36:47.415Z,50.10
2019-01-27T21:39:16.806Z,50.00
2019-01-27T21:41:45.569Z,50.00
2019-01-27T21:44:23.593Z,50.80
2019-01-27T21:46:52.488Z,51.20
2019-01-27T21:49:21.173Z,51.70
2019-01-27T21:51:50.407Z,51.70
2019-01-27T21:54:28.602Z,51.60
2019-01-27T21:56:57.614Z,51.70
2019-01-27T21:59:26.859Z,51.70
2019-01-27T22:01:55.609Z,51.70
2019-01-27T22:04:24.414Z,52.20
2019-01-27T22:06:53.477Z,52.50
2019-01-27T22:09:22.717Z,52.80
2019-01-27T22:11:51.442Z,52.70
2019-01-27T22:14:29.414Z,53.20
2019-01-27T22:16:58.089Z,54.30
2019-01-27T22:19:26.815Z,54.60
2019-01-27T22:21:56.184Z,55.40
2019-01-27T22:24:36.364Z,56.20
2019-01-27T22:27:05.507Z,57.10
2019-01-27T22:29:34.438Z,57.60
2019-01-27T22:32:03.389Z,57.70
2019-01-27T22:34:41.325Z,58.30
2019-01-27T22:37:11.842Z,58.10
2019-01-27T22:39:40.715Z,57.30
2019-01-27T22:42:09.854Z,57.40
2019-01-27T22:44:49.986Z,57.80
2019-01-27T22:47:19.136Z,58.50
2019-01-27T22:49:48.754Z,58.40
2019-01-27T22:52:17.613Z,58.40
2019-01-27T22:54:56.457Z,58.50
2019-01-27T22:57:25.484Z,58.50
2019-01-27T22:59:54.575Z,58.50
2019-01-27T23:02:23.476Z,58.50
2019-01-27T23:05:02.049Z,57.90
2019-01-27T23:07:30.762Z,57.70
2019-01-27T23:09:59.516Z,57.70
2019-01-27T23:12:28.198Z,58.50
2019-01-27T23:15:06.415Z,57.80
2019-01-27T23:17:35.217Z,58.10
2019-01-27T23:20:04.325Z,56.80
2019-01-27T23:22:33.018Z,57.60
2019-01-27T23:25:13.895Z,57.40
2019-01-27T23:27:42.632Z,57.10
2019-01-27T23:30:11.664Z,57.80
2019-01-27T23:32:40.576Z,58.10
2019-01-27T23:35:18.998Z,58.10
2019-01-27T23:37:47.868Z,57.70
2019-01-27T23:40:18.036Z,57.60
2019-01-27T23:42:47.383Z,57.30
2019-01-27T23:45:25.662Z,57.40
2019-01-27T23:50:29.446Z,56.60
2019-01-27T23:52:58.416Z,56.00
2019-01-27T23:55:36.337Z,56.10
2019-01-27T23:58:05.120Z,56.10
